Portada
METAR-TAF:

METAR-TAF

Aeroports :

Rijeka, Croàcia

latitud: 45-13N, longitud: 014-35E, altitud: 85 m

Observació

L'informe es va fer fa 27 minuts, a les 02:30 UTC
Vent 6 kt del Est
Temperatura 20°C
Humitat 46%
Pressió 1020 hPa
Visibilitat 10 km o més
sense núvols per sota de 1500 mi sense presència de cumulonimbus.

METAR: LDRI 290230Z 08006KT CAVOK 20/08 Q1020

Hora: 04:57 (02:57 UTC)

Pronòstic

L'informe es va fer fa 3 hores i 32 minuts, a les 23:25 UTC
Pronòstic vàlid del 29 a les 00 UTC al 30 a les 00 UTC
Vent 6 kt del Nord-Est
Visibilitat 10 km o més
sense núvols per sota de 1500 mi sense presència de cumulonimbus.
Probabilitat 30% :
Temporalment
l' 29 a les 02 UTC al 29 a les 06 UTC
Vent 10 kt del Est/Nord-Est
Probabilitat 30% :
Temporalment
l' 29 a les 11 UTC al 29 a les 14 UTC
Vent 8 kt del Nord-Oest

TAF: LDRI 282325Z 2900/3000 04006KT CAVOK TX27/2912Z TN15/2904Z PROB30 TEMPO 2902/2906 06010KT PROB30 TEMPO 2911/2914 32008KT

Observacions i pronòstics meteorològics de més de 4000 aeroports (METAR i TAF).

Les estacions disponibles són els punts grocs i vermells al mapa.

Posi el ratolí al punt desitjat per veure el nom de l'estació.

Feu clic per veure les observacions i els pronòstics meteorològics.

Per canviar el mapa: feu clic els botons verds amb una creu de color negre per apropar; al botó verd amb un guió per allunyar la imatge; o en les fletxes verdes per a mapes adjacents.


METAR-TAF: